Time;durP1;ratioP1;P1;durP2;ratioP2;P2;SDS_P1;SDS_P2;PMS_P1;PMS_P2;Temp;Humidity;BMP_temperature;BMP_pressure;BME280_temperature;BME280_humidity;BME280_pressure;Samples;Min_cycle;Max_cycle;Signal;HPM_P1;HPM_P2
2024/01/31 00:02:15;;;;;;;;;;;;;;;5.28;100.00;97180.50;10430011;28;2202;-67
2024/01/31 00:07:17;;;;;;;;;;;;;;;5.41;100.00;97182.34;10426007;28;2057;-66
2024/01/31 00:12:20;;;;;;;;;;;;;;;5.52;100.00;97187.03;10431157;28;2077;-67
2024/01/31 00:17:22;;;;;;;;;;;;;;;5.61;100.00;97185.00;10433190;28;2060;-66
2024/01/31 00:22:25;;;;;;;;;;;;;;;5.66;100.00;97187.84;10431518;28;2193;-65
2024/01/31 00:27:27;;;;;;;;;;;;;;;5.72;100.00;97180.84;10425861;28;2119;-66
2024/01/31 00:32:30;;;;;;;;;;;;;;;5.80;100.00;97178.81;10429006;28;2050;-66
2024/01/31 00:37:32;;;;;;;;;;;;;;;5.82;100.00;97189.25;10426664;28;2953;-66
2024/01/31 00:42:37;;;;;;;;;;;;;;;5.88;100.00;97189.25;10427898;28;2099;-67
2024/01/31 00:47:40;;;;;;;;;;;;;;;5.86;100.00;97193.97;10427988;28;2368;-66
2024/01/31 00:52:43;;;;;;;;;;;;;;;5.91;100.00;97193.38;10428645;28;2292;-65
2024/01/31 00:57:46;;;;;;;;;;;;;;;5.89;100.00;97193.53;10429359;28;2021;-67
2024/01/31 01:02:48;;;;;;;;;;;;;;;5.85;100.00;97187.00;10427992;28;2080;-68
2024/01/31 01:07:51;;;;;;;;;;;;;;;5.80;100.00;97189.47;10430473;28;2021;-66
2024/01/31 01:12:53;;;;;;;;;;;;;;;5.78;100.00;97190.69;10423499;28;2218;-66
2024/01/31 01:17:56;;;;;;;;;;;;;;;5.71;100.00;97196.03;10430376;28;2059;-66
2024/01/31 01:22:58;;;;;;;;;;;;;;;5.64;100.00;97190.72;10436150;28;2155;-65
2024/01/31 01:28:01;;;;;;;;;;;;;;;5.58;100.00;97193.41;10428282;28;2056;-68
2024/01/31 01:33:04;;;;;;;;;;;;;;;5.47;100.00;97188.69;10430359;28;2502;-66
2024/01/31 01:38:06;;;;;;;;;;;;;;;5.30;100.00;97196.28;10432446;28;2020;-69
2024/01/31 01:43:09;;;;;;;;;;;;;;;5.09;100.00;97194.63;10415352;28;2036;-70
2024/01/31 01:48:11;;;;;;;;;;;;;;;4.92;100.00;97196.88;10427548;28;2080;-70
2024/01/31 01:53:14;;;;;;;;;;;;;;;4.75;100.00;97201.75;10428091;28;2151;-66
2024/01/31 01:58:17;;;;;;;;;;;;;;;4.67;100.00;97198.47;10409283;28;2088;-66
2024/01/31 02:03:20;;;;;;;;;;;;;;;4.58;100.00;97187.16;10426300;28;2450;-66
2024/01/31 02:08:23;;;;;;;;;;;;;;;4.43;100.00;97174.03;10426112;28;2076;-66
2024/01/31 02:13:25;;;;;;;;;;;;;;;4.29;100.00;97181.16;10424374;28;2520;-67
2024/01/31 02:18:28;;;;;;;;;;;;;;;4.26;100.00;97194.03;10426562;28;2096;-66
2024/01/31 02:23:30;;;;;;;;;;;;;;;4.29;100.00;97197.13;10428440;28;2072;-68
2024/01/31 02:28:33;;;;;;;;;;;;;;;4.32;100.00;97195.88;10425847;28;2115;-65
2024/01/31 02:33:36;;;;;;;;;;;;;;;4.34;100.00;97188.53;10436841;28;2224;-66
2024/01/31 02:38:39;;;;;;;;;;;;;;;4.31;100.00;97189.75;10441680;28;2973;-69
2024/01/31 02:43:42;;;;;;;;;;;;;;;4.34;100.00;97185.88;10437253;28;2233;-65
2024/01/31 02:48:45;;;;;;;;;;;;;;;4.38;100.00;97188.94;10433206;28;2234;-67
2024/01/31 02:53:49;;;;;;;;;;;;;;;4.41;100.00;97177.91;10437235;28;2405;-66
2024/01/31 02:58:51;;;;;;;;;;;;;;;4.32;100.00;97180.75;10437079;28;2096;-65
2024/01/31 03:03:54;;;;;;;;;;;;;;;4.33;100.00;97181.59;10432551;28;2127;-71
2024/01/31 03:08:57;;;;;;;;;;;;;;;4.45;100.00;97179.13;10432587;28;2127;-65
2024/01/31 03:13:59;;;;;;;;;;;;;;;4.58;100.00;97179.19;10433334;28;2080;-65
2024/01/31 03:19:02;;;;;;;;;;;;;;;4.65;100.00;97182.69;10433966;28;1994;-68
2024/01/31 03:24:05;;;;;;;;;;;;;;;4.75;100.00;97188.44;10435882;28;2199;-65
2024/01/31 03:29:08;;;;;;;;;;;;;;;4.79;100.00;97188.88;10435808;28;2222;-73
2024/01/31 03:34:10;;;;;;;;;;;;;;;4.74;100.00;97196.66;10436833;28;2249;-67
2024/01/31 03:39:14;;;;;;;;;;;;;;;4.81;100.00;97190.28;10433684;28;3062;-65
2024/01/31 03:44:16;;;;;;;;;;;;;;;4.80;100.00;97212.63;10431607;28;2144;-66
2024/01/31 03:49:19;;;;;;;;;;;;;;;4.83;100.00;97203.41;10432539;28;2048;-66
2024/01/31 03:54:21;;;;;;;;;;;;;;;4.83;100.00;97214.88;10430825;28;2345;-66
2024/01/31 03:59:24;;;;;;;;;;;;;;;4.73;100.00;97213.66;10433039;28;2193;-66
2024/01/31 04:04:27;;;;;;;;;;;;;;;4.67;100.00;97217.13;10431624;28;2241;-66
2024/01/31 04:09:30;;;;;;;;;;;;;;;4.57;100.00;97214.81;10430493;28;2269;-66
2024/01/31 04:14:32;;;;;;;;;;;;;;;4.41;100.00;97220.53;10434790;28;2155;-66
2024/01/31 04:19:35;;;;;;;;;;;;;;;4.34;100.00;97218.66;10433142;28;2147;-66
2024/01/31 04:24:37;;;;;;;;;;;;;;;4.18;100.00;97221.63;10432022;28;2301;-66
2024/01/31 04:29:40;;;;;;;;;;;;;;;4.07;100.00;97223.03;10431503;28;2075;-64
2024/01/31 04:34:42;;;;;;;;;;;;;;;4.00;100.00;97229.31;10433757;28;3130;-65
2024/01/31 04:39:45;;;;;;;;;;;;;;;3.98;100.00;97226.03;10433639;28;3005;-66
2024/01/31 04:44:47;;;;;;;;;;;;;;;3.98;100.00;97223.38;10436126;28;2104;-66
2024/01/31 04:49:50;;;;;;;;;;;;;;;4.13;100.00;97232.03;10435161;28;2180;-64
2024/01/31 04:54:53;;;;;;;;;;;;;;;4.41;100.00;97224.00;10434218;28;2068;-66
2024/01/31 04:59:55;;;;;;;;;;;;;;;4.66;100.00;97228.81;10434758;28;2217;-67
2024/01/31 05:04:59;;;;;;;;;;;;;;;4.82;100.00;97239.88;10434506;28;2164;-67
2024/01/31 05:10:03;;;;;;;;;;;;;;;5.14;100.00;97232.16;10431822;28;2064;-67
2024/01/31 05:15:06;;;;;;;;;;;;;;;5.22;100.00;97239.16;10426917;28;2517;-67
2024/01/31 05:20:08;;;;;;;;;;;;;;;5.35;100.00;97228.50;10432276;28;2027;-67
2024/01/31 05:25:11;;;;;;;;;;;;;;;5.44;100.00;97232.59;10428645;28;2096;-69
2024/01/31 05:30:14;;;;;;;;;;;;;;;5.48;100.00;97227.69;10428462;28;2235;-67
2024/01/31 05:35:17;;;;;;;;;;;;;;;5.48;100.00;97222.34;10428648;28;2006;-67
2024/01/31 05:40:19;;;;;;;;;;;;;;;5.51;100.00;97224.59;10429116;28;3021;-67
2024/01/31 05:45:22;;;;;;;;;;;;;;;5.56;100.00;97230.13;10426448;28;2053;-67
2024/01/31 05:50:25;;;;;;;;;;;;;;;5.59;100.00;97219.03;10427923;28;2033;-73
2024/01/31 05:55:27;;;;;;;;;;;;;;;5.60;100.00;97204.69;10427169;28;2145;-73
2024/01/31 06:00:30;;;;;;;;;;;;;;;5.45;100.00;97225.41;10423941;28;2282;-71
2024/01/31 06:05:32;;;;;;;;;;;;;;;5.33;100.00;97227.88;10424982;28;2271;-70
2024/01/31 06:10:35;;;;;;;;;;;;;;;5.32;100.00;97235.06;10426701;28;2107;-67
2024/01/31 06:15:39;;;;;;;;;;;;;;;5.28;100.00;97225.00;10428760;28;2064;-64
2024/01/31 06:20:43;;;;;;;;;;;;;;;5.31;100.00;97244.09;10430550;28;2940;-66
2024/01/31 06:25:46;;;;;;;;;;;;;;;5.30;100.00;97257.63;10422635;28;2108;-66
2024/01/31 06:30:58;;;;;;;;;;;;;;;5.38;100.00;97260.91;10426685;28;2271;-67
2024/01/31 06:36:02;;;;;;;;;;;;;;;5.40;100.00;97253.50;10425733;28;2041;-67
2024/01/31 06:41:04;;;;;;;;;;;;;;;5.42;100.00;97259.47;10423927;28;3033;-66
2024/01/31 06:46:07;;;;;;;;;;;;;;;5.45;100.00;97268.09;10424590;28;2663;-68
2024/01/31 06:51:10;;;;;;;;;;;;;;;5.49;100.00;97267.47;10425805;28;2116;-66
2024/01/31 06:56:16;;;;;;;;;;;;;;;5.45;100.00;97265.41;10423565;28;2212;-67
2024/01/31 07:01:19;;;;;;;;;;;;;;;5.50;100.00;97273.63;10426524;28;2583;-68
2024/01/31 07:06:22;;;;;;;;;;;;;;;5.54;100.00;97281.03;10424703;28;2276;-66
2024/01/31 07:11:24;;;;;;;;;;;;;;;5.59;100.00;97283.06;10426525;28;2048;-68
2024/01/31 07:16:27;;;;;;;;;;;;;;;5.62;100.00;97282.66;10428521;28;2119;-66
2024/01/31 07:21:30;;;;;;;;;;;;;;;5.65;100.00;97277.72;10444212;28;2060;-66
2024/01/31 07:26:32;;;;;;;;;;;;;;;5.83;100.00;97268.28;10432855;28;2098;-66
2024/01/31 07:31:35;;;;;;;;;;;;;;;5.76;100.00;97262.94;10441358;28;1978;-66
2024/01/31 07:36:38;;;;;;;;;;;;;;;5.84;100.00;97262.72;10437966;28;2966;-74
2024/01/31 07:41:40;;;;;;;;;;;;;;;5.93;100.00;97263.38;10442127;28;1958;-65
2024/01/31 07:46:42;;;;;;;;;;;;;;;5.93;100.00;97253.53;10435521;28;2053;-66
2024/01/31 07:51:45;;;;;;;;;;;;;;;5.95;100.00;97251.47;10430751;28;2777;-65
2024/01/31 07:56:47;;;;;;;;;;;;;;;6.03;100.00;97250.41;10429492;28;2045;-64
2024/01/31 08:01:50;;;;;;;;;;;;;;;5.99;100.00;97257.22;10431468;28;2069;-65
2024/01/31 08:06:52;;;;;;;;;;;;;;;5.98;100.00;97255.59;10428876;28;2232;-65
2024/01/31 08:11:55;;;;;;;;;;;;;;;5.99;100.00;97253.72;10429829;28;2077;-65
2024/01/31 08:16:57;;;;;;;;;;;;;;;6.06;100.00;97246.53;10432582;28;2049;-64
2024/01/31 08:22:00;;;;;;;;;;;;;;;6.09;100.00;97246.09;10434573;28;2143;-68
2024/01/31 08:27:03;;;;;;;;;;;;;;;6.24;100.00;97260.03;10433573;28;2131;-70
2024/01/31 08:32:05;;;;;;;;;;;;;;;6.39;100.00;97257.09;10430789;28;1980;-67
2024/01/31 08:37:08;;;;;;;;;;;;;;;6.56;100.00;97244.13;10427567;28;3021;-70
2024/01/31 08:42:10;;;;;;;;;;;;;;;6.76;100.00;97247.50;10428011;28;2493;-73
2024/01/31 08:47:13;;;;;;;;;;;;;;;7.07;100.00;97243.22;10430250;28;2209;-64
2024/01/31 08:52:21;;;;;;;;;;;;;;;7.43;100.00;97240.69;10432064;28;2128;-65
2024/01/31 08:57:24;;;;;;;;;;;;;;;7.51;100.00;97240.44;10429570;28;2208;-64
2024/01/31 09:02:27;;;;;;;;;;;;;;;7.70;100.00;97229.75;10429061;28;2060;-64
2024/01/31 09:07:30;;;;;;;;;;;;;;;8.15;100.00;97225.03;10427872;28;2075;-65
2024/01/31 09:12:32;;;;;;;;;;;;;;;8.42;100.00;97208.66;10427815;28;2323;-65
2024/01/31 09:17:35;;;;;;;;;;;;;;;8.60;100.00;97216.69;10432832;28;2237;-64
2024/01/31 09:22:38;;;;;;;;;;;;;;;8.80;100.00;97211.06;10425229;28;2073;-65
2024/01/31 09:27:41;;;;;;;;;;;;;;;9.16;100.00;97216.34;10431456;28;2072;-64
2024/01/31 09:32:44;;;;;;;;;;;;;;;9.29;100.00;97215.31;10429603;28;2271;-65
2024/01/31 09:37:47;;;;;;;;;;;;;;;9.35;100.00;97216.25;10429893;28;2092;-65
2024/01/31 09:42:49;;;;;;;;;;;;;;;9.16;100.00;97210.97;10428820;28;2100;-63
2024/01/31 09:47:52;;;;;;;;;;;;;;;9.16;100.00;97205.59;10426183;28;2084;-64
2024/01/31 09:52:54;;;;;;;;;;;;;;;9.18;100.00;97203.50;10424803;28;2187;-64
2024/01/31 09:57:57;;;;;;;;;;;;;;;9.15;100.00;97197.75;10425258;28;2143;-64
2024/01/31 10:02:59;;;;;;;;;;;;;;;9.36;100.00;97209.84;10425645;28;2444;-67
2024/01/31 10:08:02;;;;;;;;;;;;;;;9.67;100.00;97212.22;10424185;28;2078;-65
2024/01/31 10:13:05;;;;;;;;;;;;;;;10.35;100.00;97207.28;10426448;28;2096;-65
2024/01/31 10:18:07;;;;;;;;;;;;;;;10.66;100.00;97198.78;10428985;28;2036;-63
2024/01/31 10:23:10;;;;;;;;;;;;;;;10.65;100.00;97186.41;10426042;28;2092;-66
2024/01/31 10:28:18;;;;;;;;;;;;;;;10.46;100.00;97185.75;10424637;28;2170;-65
2024/01/31 10:33:20;;;;;;;;;;;;;;;10.53;100.00;97180.25;10424140;28;2184;-67
2024/01/31 10:38:23;;;;;;;;;;;;;;;10.59;100.00;97168.53;10417348;28;2114;-64
2024/01/31 10:43:26;;;;;;;;;;;;;;;10.73;100.00;97171.75;10423888;28;2362;-64
2024/01/31 10:48:28;;;;;;;;;;;;;;;10.80;100.00;97165.16;10422508;28;2041;-66
2024/01/31 10:53:31;;;;;;;;;;;;;;;10.96;100.00;97160.09;10430036;28;2076;-65
2024/01/31 10:58:33;;;;;;;;;;;;;;;10.93;100.00;97163.25;10430643;28;2081;-65
2024/01/31 11:03:36;;;;;;;;;;;;;;;11.03;100.00;97161.56;10434587;28;2025;-65
2024/01/31 11:08:38;;;;;;;;;;;;;;;11.04;100.00;97159.69;10434579;28;1997;-67
2024/01/31 11:13:41;;;;;;;;;;;;;;;11.02;100.00;97151.03;10438108;28;2104;-65
2024/01/31 11:18:43;;;;;;;;;;;;;;;11.30;100.00;97144.78;10433671;28;2031;-65
2024/01/31 11:23:49;;;;;;;;;;;;;;;11.58;100.00;97142.00;10432050;28;2102;-66
2024/01/31 11:28:52;;;;;;;;;;;;;;;11.92;100.00;97136.59;10434835;28;2245;-65
2024/01/31 11:33:57;;;;;;;;;;;;;;;12.14;100.00;97133.91;10433550;28;2028;-67
2024/01/31 11:39:00;;;;;;;;;;;;;;;11.90;100.00;97117.97;10429692;28;2139;-67
2024/01/31 11:44:06;;;;;;;;;;;;;;;11.51;100.00;97118.97;10431754;28;2168;-65
2024/01/31 11:49:09;;;;;;;;;;;;;;;11.81;100.00;97118.66;10428855;28;2033;-65
2024/01/31 11:54:12;;;;;;;;;;;;;;;11.88;100.00;97120.09;10431038;28;2175;-63
2024/01/31 11:59:17;;;;;;;;;;;;;;;11.80;100.00;97112.41;10434829;28;2092;-65
2024/01/31 12:04:19;;;;;;;;;;;;;;;11.62;100.00;97108.13;10429500;28;2071;-67
2024/01/31 12:09:22;;;;;;;;;;;;;;;11.20;100.00;97104.25;10428548;28;2191;-65
2024/01/31 12:14:25;;;;;;;;;;;;;;;11.04;100.00;97108.56;10429482;28;2176;-66
2024/01/31 12:19:29;;;;;;;;;;;;;;;10.94;100.00;97103.84;10438598;28;2033;-70
2024/01/31 12:24:32;;;;;;;;;;;;;;;11.05;100.00;97110.19;10430131;28;2397;-70
2024/01/31 12:29:36;;;;;;;;;;;;;;;11.12;100.00;97097.38;10431570;28;2100;-68
2024/01/31 12:34:41;;;;;;;;;;;;;;;11.26;100.00;97100.56;10432935;28;2064;-65
2024/01/31 12:39:44;;;;;;;;;;;;;;;11.21;100.00;97095.94;10428695;28;2927;-65
2024/01/31 12:44:47;;;;;;;;;;;;;;;11.03;100.00;97090.78;10427506;28;2090;-64
2024/01/31 12:49:49;;;;;;;;;;;;;;;11.03;100.00;97075.44;10430828;28;2063;-64
2024/01/31 12:54:52;;;;;;;;;;;;;;;10.87;100.00;97081.63;10425983;28;2216;-64
2024/01/31 12:59:54;;;;;;;;;;;;;;;10.68;100.00;97070.28;10429952;28;1996;-65
2024/01/31 13:04:56;;;;;;;;;;;;;;;10.57;100.00;97071.19;10424995;28;2092;-64
2024/01/31 13:10:00;;;;;;;;;;;;;;;10.80;100.00;97071.03;10425804;28;2045;-65
2024/01/31 13:15:03;;;;;;;;;;;;;;;11.21;100.00;97060.94;10427190;28;2354;-64
2024/01/31 13:20:08;;;;;;;;;;;;;;;11.32;100.00;97057.34;10427271;28;2249;-64
2024/01/31 13:25:11;;;;;;;;;;;;;;;11.59;100.00;97064.72;10428077;28;2104;-64
2024/01/31 13:30:13;;;;;;;;;;;;;;;11.39;100.00;97065.25;10424274;28;2248;-63
2024/01/31 13:35:16;;;;;;;;;;;;;;;11.45;100.00;97058.88;10424573;28;2100;-65
2024/01/31 13:40:18;;;;;;;;;;;;;;;11.62;100.00;97058.81;10429310;28;2148;-66
2024/01/31 13:45:21;;;;;;;;;;;;;;;11.26;100.00;97052.94;10426499;28;2025;-67
2024/01/31 13:50:24;;;;;;;;;;;;;;;11.25;100.00;97051.28;10426128;28;2148;-64
2024/01/31 13:55:27;;;;;;;;;;;;;;;11.12;100.00;97043.56;10424610;28;2567;-65
2024/01/31 14:00:29;;;;;;;;;;;;;;;11.15;100.00;97045.78;10426710;28;2073;-64
2024/01/31 14:05:32;;;;;;;;;;;;;;;11.26;100.00;97047.56;10426241;28;2037;-65
2024/01/31 14:10:34;;;;;;;;;;;;;;;11.53;100.00;97046.84;10424660;28;2236;-65
2024/01/31 14:15:37;;;;;;;;;;;;;;;11.80;100.00;97036.16;10425423;28;1949;-65
2024/01/31 14:20:40;;;;;;;;;;;;;;;11.55;100.00;97023.19;10423901;28;2143;-66
2024/01/31 14:25:42;;;;;;;;;;;;;;;11.27;100.00;97033.03;10432729;28;2182;-65
2024/01/31 14:30:45;;;;;;;;;;;;;;;11.31;100.00;97023.38;10436891;28;2068;-64
2024/01/31 14:35:47;;;;;;;;;;;;;;;11.19;100.00;97022.66;10436319;28;2045;-64
2024/01/31 14:40:52;;;;;;;;;;;;;;;10.83;100.00;97021.31;10439480;28;2998;-63
2024/01/31 14:45:55;;;;;;;;;;;;;;;10.74;100.00;97028.97;10435028;28;2530;-65
2024/01/31 14:50:57;;;;;;;;;;;;;;;10.60;100.00;97022.28;10437017;28;2126;-63
2024/01/31 14:56:00;;;;;;;;;;;;;;;10.61;100.00;97023.91;10436971;28;2052;-63
2024/01/31 15:01:02;;;;;;;;;;;;;;;10.69;100.00;97041.53;10436673;28;2198;-65
2024/01/31 15:06:05;;;;;;;;;;;;;;;10.92;100.00;97043.25;10436334;28;2123;-64
2024/01/31 15:11:08;;;;;;;;;;;;;;;10.98;100.00;97036.88;10437412;28;2229;-64
2024/01/31 15:16:10;;;;;;;;;;;;;;;10.96;100.00;97031.75;10438936;28;2108;-64
2024/01/31 15:21:13;;;;;;;;;;;;;;;10.91;100.00;97028.16;10442488;28;2044;-65
2024/01/31 15:26:15;;;;;;;;;;;;;;;10.77;100.00;97027.69;10437412;28;2496;-65
2024/01/31 15:31:21;;;;;;;;;;;;;;;10.66;100.00;97025.88;10438608;28;2009;-65
2024/01/31 15:36:24;;;;;;;;;;;;;;;10.44;100.00;97021.22;10433094;28;2989;-64
2024/01/31 15:41:27;;;;;;;;;;;;;;;10.28;100.00;97006.66;10430947;28;2072;-64
2024/01/31 15:46:32;;;;;;;;;;;;;;;10.00;100.00;96990.53;10430453;28;2419;-64
2024/01/31 15:51:35;;;;;;;;;;;;;;;9.70;100.00;96991.56;10430913;28;2104;-65
2024/01/31 15:56:37;;;;;;;;;;;;;;;9.40;100.00;96997.13;10432068;28;2060;-64
2024/01/31 16:01:40;;;;;;;;;;;;;;;9.14;100.00;96995.75;10429539;28;2148;-64
2024/01/31 16:06:42;;;;;;;;;;;;;;;8.91;100.00;96998.47;10436361;28;2084;-64
2024/01/31 16:11:45;;;;;;;;;;;;;;;8.64;100.00;96993.50;10431902;28;2040;-66
2024/01/31 16:16:47;;;;;;;;;;;;;;;8.42;100.00;96987.09;10433458;28;2068;-64
2024/01/31 16:21:50;;;;;;;;;;;;;;;8.27;100.00;96997.38;10434392;28;2064;-67
2024/01/31 16:26:52;;;;;;;;;;;;;;;8.12;100.00;97001.28;10430415;28;2064;-65
2024/01/31 16:31:55;;;;;;;;;;;;;;;7.98;100.00;96999.84;10434262;28;2947;-68
2024/01/31 16:36:57;;;;;;;;;;;;;;;8.06;100.00;97002.19;10433702;28;2973;-70
2024/01/31 16:42:00;;;;;;;;;;;;;;;7.93;100.00;97012.28;10437323;28;2095;-70
2024/01/31 16:47:02;;;;;;;;;;;;;;;7.68;100.00;97025.75;10430756;28;2152;-72
2024/01/31 16:52:05;;;;;;;;;;;;;;;7.51;100.00;97037.09;10433418;28;2169;-67
2024/01/31 16:57:07;;;;;;;;;;;;;;;7.29;100.00;97033.19;10429598;28;2072;-68
2024/01/31 17:02:10;;;;;;;;;;;;;;;7.26;100.00;97036.34;10431866;28;2138;-67
2024/01/31 17:07:12;;;;;;;;;;;;;;;7.01;100.00;97031.84;10430186;28;2236;-67
2024/01/31 17:12:15;;;;;;;;;;;;;;;6.86;100.00;97033.19;10427004;28;3366;-65
2024/01/31 17:17:18;;;;;;;;;;;;;;;6.90;100.00;97029.88;10435473;28;2127;-65
2024/01/31 17:22:21;;;;;;;;;;;;;;;6.74;100.00;97025.06;10431333;28;2057;-65
2024/01/31 17:27:23;;;;;;;;;;;;;;;6.64;100.00;97017.56;10426911;28;2056;-65
2024/01/31 17:32:26;;;;;;;;;;;;;;;6.57;100.00;97021.31;10428848;28;2123;-66
2024/01/31 17:37:29;;;;;;;;;;;;;;;6.46;100.00;97018.31;10434143;28;2804;-62
2024/01/31 17:42:31;;;;;;;;;;;;;;;6.34;100.00;97025.38;10433915;28;2079;-67
2024/01/31 17:47:34;;;;;;;;;;;;;;;6.22;100.00;97035.13;10432895;28;2131;-69
2024/01/31 17:52:37;;;;;;;;;;;;;;;6.16;100.00;97042.13;10431798;28;2080;-68
2024/01/31 17:57:39;;;;;;;;;;;;;;;6.12;100.00;97050.81;10431150;28;1985;-65
2024/01/31 18:02:42;;;;;;;;;;;;;;;6.03;100.00;97052.88;10412712;28;2179;-64
2024/01/31 18:07:45;;;;;;;;;;;;;;;5.93;100.00;97053.34;10421832;28;2794;-64
2024/01/31 18:12:47;;;;;;;;;;;;;;;5.85;100.00;97058.91;10424320;28;2025;-64
2024/01/31 18:17:49;;;;;;;;;;;;;;;5.85;100.00;97052.72;10428819;28;2427;-68
2024/01/31 18:22:53;;;;;;;;;;;;;;;5.78;100.00;97049.28;10427736;28;2048;-64
2024/01/31 18:27:56;;;;;;;;;;;;;;;5.70;100.00;97039.66;10423340;28;2085;-68
2024/01/31 18:32:59;;;;;;;;;;;;;;;5.64;100.00;97035.19;10422216;28;2205;-66
2024/01/31 18:38:02;;;;;;;;;;;;;;;5.58;100.00;97036.03;10426174;28;2937;-64
2024/01/31 18:43:05;;;;;;;;;;;;;;;5.52;100.00;97031.53;10423704;28;2131;-64
2024/01/31 18:48:07;;;;;;;;;;;;;;;5.46;100.00;97019.03;10423129;28;2084;-64
2024/01/31 18:53:10;;;;;;;;;;;;;;;5.41;100.00;97015.16;10424455;28;2054;-65
2024/01/31 18:58:13;;;;;;;;;;;;;;;5.35;100.00;97005.34;10424879;28;3063;-69
2024/01/31 19:03:15;;;;;;;;;;;;;;;5.31;100.00;96998.78;10423129;28;2277;-66
2024/01/31 19:08:18;;;;;;;;;;;;;;;5.24;100.00;96981.19;10425150;28;2153;-71
2024/01/31 19:13:21;;;;;;;;;;;;;;;5.24;100.00;96983.84;10431439;28;2037;-65
2024/01/31 19:18:24;;;;;;;;;;;;;;;5.13;100.00;96980.78;10439259;28;2125;-65
2024/01/31 19:23:27;;;;;;;;;;;;;;;5.10;100.00;96969.75;10429234;28;2078;-65
2024/01/31 19:28:30;;;;;;;;;;;;;;;5.11;100.00;96963.38;10427167;28;1966;-66
2024/01/31 19:33:34;;;;;;;;;;;;;;;5.12;100.00;96959.69;10433372;28;2139;-66
2024/01/31 19:38:37;;;;;;;;;;;;;;;5.03;100.00;96948.44;10434257;28;2844;-65
2024/01/31 19:43:40;;;;;;;;;;;;;;;4.96;100.00;96936.94;10432942;28;2045;-65
2024/01/31 19:48:43;;;;;;;;;;;;;;;4.89;100.00;96939.63;10432562;28;2371;-71
2024/01/31 19:53:45;;;;;;;;;;;;;;;4.89;100.00;96939.63;10436127;28;2939;-66
2024/01/31 19:58:48;;;;;;;;;;;;;;;4.85;100.00;96935.78;10416815;28;2120;-66
2024/01/31 20:03:51;;;;;;;;;;;;;;;4.85;100.00;96940.28;10433567;28;2209;-66
2024/01/31 20:08:53;;;;;;;;;;;;;;;4.87;100.00;96944.38;10431494;28;2257;-67
2024/01/31 20:13:55;;;;;;;;;;;;;;;4.80;100.00;96938.25;10432426;28;2199;-67
2024/01/31 20:18:58;;;;;;;;;;;;;;;4.69;100.00;96930.88;10433036;28;2018;-66
2024/01/31 20:24:01;;;;;;;;;;;;;;;4.68;100.00;96917.78;10432911;28;2048;-67
2024/01/31 20:29:04;;;;;;;;;;;;;;;4.58;100.00;96918.19;10431265;28;2213;-66
2024/01/31 20:34:06;;;;;;;;;;;;;;;4.58;100.00;96908.38;10428253;28;2916;-65
2024/01/31 20:39:09;;;;;;;;;;;;;;;4.59;100.00;96893.22;10428101;28;2462;-65
2024/01/31 20:44:12;;;;;;;;;;;;;;;4.70;100.00;96886.41;10431817;28;2296;-65
2024/01/31 20:49:15;;;;;;;;;;;;;;;4.58;100.00;96897.72;10428650;28;2085;-64
2024/01/31 20:54:17;;;;;;;;;;;;;;;4.56;100.00;96889.13;10431166;28;2049;-65
2024/01/31 20:59:20;;;;;;;;;;;;;;;4.54;100.00;96883.19;10430066;28;2033;-66
2024/01/31 21:04:23;;;;;;;;;;;;;;;4.47;100.00;96885.06;10413080;28;2121;-67
2024/01/31 21:09:25;;;;;;;;;;;;;;;4.42;100.00;96886.69;10428690;28;2199;-65
2024/01/31 21:14:28;;;;;;;;;;;;;;;4.35;100.00;96886.69;10429033;28;2064;-66
2024/01/31 21:19:31;;;;;;;;;;;;;;;4.26;100.00;96883.44;10436369;28;3434;-66
2024/01/31 21:24:33;;;;;;;;;;;;;;;4.18;100.00;96886.31;10430686;28;2076;-70
2024/01/31 21:29:36;;;;;;;;;;;;;;;4.15;100.00;96892.06;10431363;28;2324;-71
2024/01/31 21:34:38;;;;;;;;;;;;;;;4.11;100.00;96874.84;10429103;28;2116;-68
2024/01/31 21:39:41;;;;;;;;;;;;;;;4.04;100.00;96879.34;10429453;28;3101;-68
2024/01/31 21:44:44;;;;;;;;;;;;;;;4.01;100.00;96861.16;10431011;28;2274;-71
2024/01/31 21:49:47;;;;;;;;;;;;;;;3.98;100.00;96872.19;10430995;28;2359;-69
2024/01/31 21:54:50;;;;;;;;;;;;;;;3.93;100.00;96866.66;10430123;28;1958;-66
2024/01/31 21:59:53;;;;;;;;;;;;;;;3.85;100.00;96872.19;10431845;28;2084;-67
2024/01/31 22:04:55;;;;;;;;;;;;;;;3.77;100.00;96867.91;10431063;28;2741;-66
2024/01/31 22:09:58;;;;;;;;;;;;;;;3.77;100.00;96875.88;10429392;28;2018;-69
2024/01/31 22:15:03;;;;;;;;;;;;;;;3.74;100.00;96885.06;10430487;28;2066;-66
2024/01/31 22:20:06;;;;;;;;;;;;;;;3.70;100.00;96883.84;10437326;28;2127;-67
2024/01/31 22:25:08;;;;;;;;;;;;;;;3.70;100.00;96883.84;10428750;28;2502;-67
2024/01/31 22:30:11;;;;;;;;;;;;;;;3.76;100.00;96883.03;10431584;28;2112;-67
2024/01/31 22:35:14;;;;;;;;;;;;;;;3.78;100.00;96880.97;10427719;28;2143;-67
2024/01/31 22:40:16;;;;;;;;;;;;;;;3.85;100.00;96886.31;10431203;28;3022;-68
2024/01/31 22:45:19;;;;;;;;;;;;;;;4.02;100.00;96881.41;10426702;28;2362;-68
2024/01/31 22:50:22;;;;;;;;;;;;;;;4.26;100.00;96872.81;10439827;28;2174;-67
2024/01/31 22:55:24;;;;;;;;;;;;;;;4.64;100.00;96876.59;10438820;28;2107;-67
2024/01/31 23:00:27;;;;;;;;;;;;;;;4.76;100.00;96865.09;10439532;28;2245;-66
2024/01/31 23:05:30;;;;;;;;;;;;;;;4.90;100.00;96873.88;10437855;28;2056;-67
2024/01/31 23:10:33;;;;;;;;;;;;;;;4.94;100.00;96858.28;10436414;28;2139;-67
2024/01/31 23:15:35;;;;;;;;;;;;;;;4.94;100.00;96855.59;10439794;28;2060;-66
2024/01/31 23:20:38;;;;;;;;;;;;;;;4.71;100.00;96854.28;10440552;28;2124;-66
2024/01/31 23:25:41;;;;;;;;;;;;;;;4.62;100.00;96844.84;10433618;28;2109;-66
2024/01/31 23:30:43;;;;;;;;;;;;;;;4.48;100.00;96838.75;10435053;28;2360;-67
2024/01/31 23:35:46;;;;;;;;;;;;;;;4.30;100.00;96820.78;10433291;28;2080;-70
2024/01/31 23:40:48;;;;;;;;;;;;;;;4.23;100.00;96817.31;10434010;28;2946;-68
2024/01/31 23:45:51;;;;;;;;;;;;;;;4.26;100.00;96813.41;10438119;28;2211;-70
2024/01/31 23:50:53;;;;;;;;;;;;;;;4.28;100.00;96795.41;10435061;28;2260;-73
2024/01/31 23:55:56;;;;;;;;;;;;;;;4.21;100.00;96781.28;10434063;28;2079;-68
